Time;durP1;ratioP1;P1;durP2;ratioP2;P2;SDS_P1;SDS_P2;PMS_P1;PMS_P2;Temp;Humidity;BMP_temperature;BMP_pressure;BME280_temperature;BME280_humidity;BME280_pressure;Samples;Min_cycle;Max_cycle;Signal;HPM_P1;HPM_P2
2022/07/12 00:00:47;;;;;;;;;;;25.00;50.50;;;;;;5066662;28;19916;-62
2022/07/12 00:03:13;;;;;;;;;;;25.00;50.60;;;;;;5064179;28;20287;-62
2022/07/12 00:05:38;;;;;;;;;;;25.00;50.60;;;;;;5081280;28;19916;-62
2022/07/12 00:08:06;;;;;;;;;;;25.00;50.60;;;;;;5082963;28;19962;-62
2022/07/12 00:10:32;;;;;;;;;;;25.00;50.50;;;;;;5070930;28;19941;-62
2022/07/12 00:12:57;;;;;;;;;;;25.00;50.50;;;;;;5071054;28;20368;-62
2022/07/12 00:15:23;;;;;;;;;;;25.00;50.60;;;;;;5069914;28;19913;-62
2022/07/12 00:17:48;;;;;;;;;;;25.00;50.60;;;;;;5066512;28;20366;-62
2022/07/12 00:20:14;;;;;;;;;;;25.00;50.50;;;;;;5069395;28;19959;-61
2022/07/12 00:22:39;;;;;;;;;;;25.00;50.50;;;;;;5083712;28;20310;-62
2022/07/12 00:25:05;;;;;;;;;;;25.00;50.50;;;;;;5080868;28;20344;-62
2022/07/12 00:27:30;;;;;;;;;;;25.00;50.40;;;;;;5074901;28;19923;-62
2022/07/12 00:29:56;;;;;;;;;;;25.00;50.40;;;;;;5081309;28;19916;-62
2022/07/12 00:32:21;;;;;;;;;;;25.00;50.40;;;;;;5073051;28;19916;-62
2022/07/12 00:34:47;;;;;;;;;;;25.00;50.40;;;;;;5072687;28;19924;-62
2022/07/12 00:37:12;;;;;;;;;;;25.00;50.40;;;;;;5069575;28;20463;-62
2022/07/12 00:39:37;;;;;;;;;;;25.00;50.50;;;;;;5070893;28;19917;-62
2022/07/12 00:42:03;;;;;;;;;;;25.00;50.40;;;;;;5077799;28;19916;-62
2022/07/12 00:44:30;;;;;;;;;;;25.00;50.40;;;;;;5075373;28;20300;-63
2022/07/12 00:46:59;;;;;;;;;;;25.00;50.30;;;;;;5076601;28;19916;-62
2022/07/12 00:49:24;;;;;;;;;;;25.00;50.40;;;;;;5074877;28;20006;-62
2022/07/12 00:51:50;;;;;;;;;;;25.00;50.40;;;;;;5056533;28;20039;-62
2022/07/12 00:54:16;;;;;;;;;;;25.00;50.50;;;;;;5062551;28;19946;-62
2022/07/12 00:56:42;;;;;;;;;;;24.90;50.40;;;;;;5063000;28;20372;-62
2022/07/12 00:59:07;;;;;;;;;;;24.90;50.40;;;;;;5069039;28;19985;-61
2022/07/12 01:01:33;;;;;;;;;;;24.90;50.40;;;;;;5063154;28;19920;-62
2022/07/12 01:03:58;;;;;;;;;;;24.90;50.50;;;;;;5063899;28;19913;-62
2022/07/12 01:06:24;;;;;;;;;;;24.90;50.70;;;;;;5065447;28;19920;-61
2022/07/12 01:08:49;;;;;;;;;;;24.80;50.70;;;;;;5078133;28;19915;-62
2022/07/12 01:11:15;;;;;;;;;;;24.80;50.60;;;;;;5071663;28;20009;-62
2022/07/12 01:13:41;;;;;;;;;;;24.80;50.60;;;;;;5067366;28;19981;-61
2022/07/12 01:16:06;;;;;;;;;;;24.80;50.60;;;;;;5071511;28;20106;-62
2022/07/12 01:18:32;;;;;;;;;;;24.80;50.60;;;;;;5079747;28;19918;-62
2022/07/12 01:20:58;;;;;;;;;;;24.80;50.50;;;;;;5062524;28;20296;-62
2022/07/12 01:23:23;;;;;;;;;;;24.80;50.90;;;;;;5078930;28;19923;-62
2022/07/12 01:25:49;;;;;;;;;;;24.80;50.70;;;;;;5080492;28;20291;-62
2022/07/12 01:28:14;;;;;;;;;;;24.80;50.70;;;;;;5078351;28;19919;-62
2022/07/12 01:30:40;;;;;;;;;;;24.80;50.90;;;;;;5082942;28;20012;-62
2022/07/12 01:33:05;;;;;;;;;;;24.80;50.90;;;;;;5084216;28;19951;-62
2022/07/12 01:35:31;;;;;;;;;;;24.70;50.80;;;;;;5075118;28;20363;-62
2022/07/12 01:37:56;;;;;;;;;;;24.70;50.70;;;;;;5074702;28;19916;-62
2022/07/12 01:40:22;;;;;;;;;;;24.70;50.80;;;;;;5074617;28;19920;-62
2022/07/12 01:42:47;;;;;;;;;;;24.70;50.80;;;;;;5078705;28;19916;-62
2022/07/12 01:45:13;;;;;;;;;;;24.70;50.90;;;;;;5084983;28;19944;-62
2022/07/12 01:47:38;;;;;;;;;;;24.70;50.90;;;;;;5085047;28;20435;-61
2022/07/12 01:50:05;;;;;;;;;;;24.70;50.80;;;;;;5067158;28;19935;-62
2022/07/12 01:52:30;;;;;;;;;;;24.70;50.80;;;;;;5068618;28;19923;-62
2022/07/12 01:54:56;;;;;;;;;;;24.70;51.40;;;;;;5072773;28;20368;-61
2022/07/12 01:57:21;;;;;;;;;;;24.70;50.80;;;;;;5076971;28;19920;-62
2022/07/12 01:59:47;;;;;;;;;;;24.70;50.70;;;;;;5075184;28;20020;-62
2022/07/12 02:02:12;;;;;;;;;;;24.70;50.70;;;;;;5074555;28;20292;-62
2022/07/12 02:04:38;;;;;;;;;;;24.70;50.70;;;;;;5085017;28;19915;-62
2022/07/12 02:07:03;;;;;;;;;;;24.70;50.80;;;;;;5087679;28;19998;-62
2022/07/12 02:09:29;;;;;;;;;;;24.70;50.80;;;;;;5070582;28;20379;-62
2022/07/12 02:11:54;;;;;;;;;;;24.70;50.80;;;;;;5068223;28;19927;-62
2022/07/12 02:14:20;;;;;;;;;;;24.70;50.90;;;;;;5067843;28;20024;-62
2022/07/12 02:16:45;;;;;;;;;;;24.70;50.80;;;;;;5064545;28;19924;-62
2022/07/12 02:19:11;;;;;;;;;;;24.60;50.80;;;;;;5075600;28;19944;-61
2022/07/12 02:21:36;;;;;;;;;;;24.70;50.80;;;;;;5072463;28;19916;-62
2022/07/12 02:24:02;;;;;;;;;;;24.70;50.80;;;;;;5068370;28;19917;-62
2022/07/12 02:26:27;;;;;;;;;;;24.70;50.70;;;;;;5068574;28;19919;-62
2022/07/12 02:28:53;;;;;;;;;;;24.70;50.80;;;;;;5063187;28;19920;-61
2022/07/12 02:31:18;;;;;;;;;;;24.70;50.60;;;;;;5081741;28;19920;-62
2022/07/12 02:33:44;;;;;;;;;;;24.70;50.60;;;;;;5071165;28;19975;-62
2022/07/12 02:36:09;;;;;;;;;;;24.70;50.70;;;;;;5072354;28;19914;-61
2022/07/12 02:38:35;;;;;;;;;;;24.60;50.70;;;;;;5071387;28;19966;-62
2022/07/12 02:41:00;;;;;;;;;;;24.60;50.70;;;;;;5072026;28;19920;-62
2022/07/12 02:43:26;;;;;;;;;;;24.60;51.30;;;;;;5065927;28;20330;-62
2022/07/12 02:45:52;;;;;;;;;;;24.60;50.50;;;;;;5069243;28;19999;-62
2022/07/12 02:48:18;;;;;;;;;;;24.60;51.30;;;;;;5068512;28;19920;-62
2022/07/12 02:50:43;;;;;;;;;;;24.60;50.70;;;;;;5071484;28;19923;-62
2022/07/12 02:53:09;;;;;;;;;;;24.60;50.70;;;;;;5083416;28;20287;-62
2022/07/12 02:55:34;;;;;;;;;;;24.60;50.60;;;;;;5083947;28;20418;-62
2022/07/12 02:58:00;;;;;;;;;;;24.60;50.60;;;;;;5071763;28;19917;-61
2022/07/12 03:00:26;;;;;;;;;;;24.60;50.50;;;;;;5078685;28;20007;-62
2022/07/12 03:02:51;;;;;;;;;;;24.60;50.50;;;;;;5069870;28;19924;-62
2022/07/12 03:05:17;;;;;;;;;;;24.60;50.40;;;;;;5064661;28;19960;-62
2022/07/12 03:07:42;;;;;;;;;;;24.60;50.50;;;;;;5073649;28;19913;-62
2022/07/12 03:10:08;;;;;;;;;;;24.60;50.40;;;;;;5077375;28;21429;-61
2022/07/12 03:12:34;;;;;;;;;;;24.60;50.40;;;;;;5078690;28;19920;-62
2022/07/12 03:14:59;;;;;;;;;;;24.60;50.50;;;;;;5089625;28;19963;-62
2022/07/12 03:17:24;;;;;;;;;;;24.60;50.50;;;;;;5062639;28;19912;-62
2022/07/12 03:19:50;;;;;;;;;;;24.60;50.40;;;;;;5064950;28;20428;-62
2022/07/12 03:22:15;;;;;;;;;;;24.60;50.30;;;;;;5073271;28;20280;-62
2022/07/12 03:24:41;;;;;;;;;;;24.60;50.40;;;;;;5083783;28;20279;-62
2022/07/12 03:27:06;;;;;;;;;;;24.60;50.40;;;;;;5086023;28;20389;-62
2022/07/12 03:29:32;;;;;;;;;;;24.60;50.50;;;;;;5084084;28;19915;-62
2022/07/12 03:31:57;;;;;;;;;;;24.60;50.50;;;;;;5092313;28;19942;-62
2022/07/12 03:34:23;;;;;;;;;;;24.50;50.50;;;;;;5084143;28;20416;-62
2022/07/12 03:36:48;;;;;;;;;;;24.50;50.40;;;;;;5084054;28;20364;-61
2022/07/12 03:39:13;;;;;;;;;;;24.50;50.40;;;;;;5080488;28;19908;-62
2022/07/12 03:41:39;;;;;;;;;;;24.50;50.40;;;;;;5085295;28;19995;-61
2022/07/12 03:44:05;;;;;;;;;;;24.50;50.40;;;;;;5075436;28;19908;-62
2022/07/12 03:46:32;;;;;;;;;;;24.50;50.40;;;;;;5092273;28;19920;-62
2022/07/12 03:48:58;;;;;;;;;;;24.50;50.40;;;;;;5081699;28;19919;-61
2022/07/12 03:51:24;;;;;;;;;;;24.50;50.40;;;;;;5076515;28;19927;-61
2022/07/12 03:53:49;;;;;;;;;;;24.50;50.40;;;;;;5065111;28;19912;-61
2022/07/12 03:57:13;;;;;;;;;;;24.50;50.40;;;;;;5087235;28;20359;-62
2022/07/12 03:59:00;;;;;;;;;;;24.50;50.40;;;;;;5087410;28;19908;-62
2022/07/12 04:01:26;;;;;;;;;;;24.50;50.40;;;;;;5084018;28;19908;-62
2022/07/12 04:03:51;;;;;;;;;;;24.50;50.50;;;;;;5091298;28;19999;-62
2022/07/12 04:06:17;;;;;;;;;;;24.50;50.40;;;;;;5089396;28;19916;-62
2022/07/12 04:08:42;;;;;;;;;;;24.50;50.40;;;;;;5073680;28;19915;-62
2022/07/12 04:11:08;;;;;;;;;;;24.50;50.40;;;;;;5082819;28;19920;-62
2022/07/12 04:13:33;;;;;;;;;;;24.50;50.40;;;;;;5091510;28;19912;-62
2022/07/12 04:15:59;;;;;;;;;;;24.50;50.40;;;;;;5076063;28;19923;-62
2022/07/12 04:18:24;;;;;;;;;;;24.50;50.50;;;;;;5068094;28;19917;-62
2022/07/12 04:20:50;;;;;;;;;;;24.50;50.40;;;;;;5074894;28;19916;-62
2022/07/12 04:23:15;;;;;;;;;;;24.50;50.50;;;;;;5079562;28;19912;-62
2022/07/12 04:25:40;;;;;;;;;;;24.50;50.50;;;;;;5070004;28;19963;-61
2022/07/12 04:28:06;;;;;;;;;;;24.50;50.60;;;;;;5060829;28;19924;-62
2022/07/12 04:30:31;;;;;;;;;;;24.40;50.50;;;;;;5069982;28;19912;-62
2022/07/12 04:32:57;;;;;;;;;;;24.50;50.50;;;;;;5076376;28;20376;-61
2022/07/12 04:35:22;;;;;;;;;;;24.50;50.60;;;;;;5069669;28;20379;-62
2022/07/12 04:37:48;;;;;;;;;;;24.50;50.50;;;;;;5077257;28;19908;-62
2022/07/12 04:40:13;;;;;;;;;;;24.50;50.50;;;;;;5068882;28;19917;-62
2022/07/12 04:42:39;;;;;;;;;;;24.50;50.50;;;;;;5076359;28;19913;-62
2022/07/12 04:45:04;;;;;;;;;;;24.50;50.50;;;;;;5063117;28;20337;-62
2022/07/12 04:47:30;;;;;;;;;;;24.50;50.50;;;;;;5072621;28;20401;-62
2022/07/12 04:49:55;;;;;;;;;;;24.40;50.40;;;;;;5081342;28;19951;-62
2022/07/12 04:52:21;;;;;;;;;;;24.40;50.60;;;;;;5068232;28;19921;-61
2022/07/12 04:54:46;;;;;;;;;;;24.40;50.70;;;;;;5067172;28;20274;-62
2022/07/12 04:57:12;;;;;;;;;;;24.40;50.70;;;;;;5076664;28;20265;-62
2022/07/12 04:59:37;;;;;;;;;;;24.40;50.70;;;;;;5085584;28;19920;-62
2022/07/12 05:02:03;;;;;;;;;;;24.40;50.60;;;;;;5077208;28;19920;-62
2022/07/12 05:04:31;;;;;;;;;;;24.40;51.40;;;;;;5078729;28;19916;-63
2022/07/12 05:06:56;;;;;;;;;;;24.40;50.70;;;;;;5072271;28;19919;-62
2022/07/12 05:09:22;;;;;;;;;;;24.40;50.60;;;;;;5075403;28;19912;-62
2022/07/12 05:11:47;;;;;;;;;;;24.50;50.70;;;;;;5081218;28;20386;-62
2022/07/12 05:14:13;;;;;;;;;;;24.40;50.60;;;;;;5073531;28;19969;-62
2022/07/12 05:16:38;;;;;;;;;;;24.40;50.70;;;;;;5060976;28;19965;-62
2022/07/12 05:19:04;;;;;;;;;;;24.40;50.70;;;;;;5072822;28;20434;-62
2022/07/12 05:21:29;;;;;;;;;;;24.40;50.80;;;;;;5071339;28;20365;-62
2022/07/12 05:23:54;;;;;;;;;;;24.30;50.80;;;;;;5067963;28;20344;-62
2022/07/12 05:26:20;;;;;;;;;;;24.30;50.90;;;;;;5084600;28;20338;-63
2022/07/12 05:28:45;;;;;;;;;;;24.30;51.00;;;;;;5089212;28;20322;-62
2022/07/12 05:31:11;;;;;;;;;;;24.30;50.90;;;;;;5084295;28;20364;-63
2022/07/12 05:33:36;;;;;;;;;;;24.30;50.70;;;;;;5075683;28;20292;-62
2022/07/12 05:36:02;;;;;;;;;;;24.30;50.70;;;;;;5076350;28;19967;-62
2022/07/12 05:38:27;;;;;;;;;;;24.30;50.70;;;;;;5079079;28;19921;-62
2022/07/12 05:40:53;;;;;;;;;;;24.30;50.60;;;;;;5068709;28;20386;-62
2022/07/12 05:43:18;;;;;;;;;;;24.40;50.70;;;;;;5070490;28;20552;-62
2022/07/12 05:45:44;;;;;;;;;;;24.40;50.70;;;;;;5060694;28;20327;-62
2022/07/12 05:48:09;;;;;;;;;;;24.40;50.70;;;;;;5068424;28;19913;-62
2022/07/12 05:50:34;;;;;;;;;;;24.40;50.60;;;;;;5076701;28;19923;-62
2022/07/12 05:55:44;;;;;;;;;;;24.40;50.60;;;;;;5088697;28;19939;-62
2022/07/12 05:58:10;;;;;;;;;;;24.40;50.70;;;;;;5093688;28;19908;-61
2022/07/12 06:00:36;;;;;;;;;;;24.40;50.70;;;;;;5083635;28;20402;-62
2022/07/12 06:03:01;;;;;;;;;;;24.40;50.60;;;;;;5092088;28;20005;-62
2022/07/12 06:05:27;;;;;;;;;;;24.40;50.60;;;;;;5085859;28;20130;-62
2022/07/12 06:07:52;;;;;;;;;;;24.40;50.70;;;;;;5073217;28;19977;-62
2022/07/12 06:10:18;;;;;;;;;;;24.40;50.70;;;;;;5067239;28;19947;-62
2022/07/12 06:12:43;;;;;;;;;;;24.40;50.60;;;;;;5082460;28;20333;-62
2022/07/12 06:15:09;;;;;;;;;;;24.40;51.00;;;;;;5065450;28;19916;-62
2022/07/12 06:17:34;;;;;;;;;;;24.30;50.90;;;;;;5080470;28;19919;-62
2022/07/12 06:20:00;;;;;;;;;;;24.30;50.90;;;;;;5085142;28;19908;-62
2022/07/12 06:22:25;;;;;;;;;;;24.30;50.90;;;;;;5083536;28;19912;-62
2022/07/12 06:24:51;;;;;;;;;;;24.30;50.90;;;;;;5084873;28;20022;-62
2022/07/12 06:27:16;;;;;;;;;;;24.40;50.90;;;;;;5077965;28;19920;-62
2022/07/12 06:29:47;;;;;;;;;;;24.40;51.10;;;;;;5069951;28;20014;-62
2022/07/12 06:32:16;;;;;;;;;;;24.40;51.10;;;;;;5076762;28;19923;-62
2022/07/12 06:34:41;;;;;;;;;;;24.40;51.00;;;;;;5058235;28;19913;-62
2022/07/12 06:37:08;;;;;;;;;;;24.40;51.00;;;;;;5061089;28;19916;-62
2022/07/12 06:39:37;;;;;;;;;;;24.40;51.10;;;;;;5064823;28;20339;-62
2022/07/12 06:42:05;;;;;;;;;;;24.40;51.20;;;;;;5064411;28;19919;-62
2022/07/12 06:44:31;;;;;;;;;;;24.40;51.30;;;;;;5060446;28;19960;-62
2022/07/12 06:46:57;;;;;;;;;;;24.40;51.30;;;;;;5065226;28;19959;-62
2022/07/12 06:49:22;;;;;;;;;;;24.40;51.30;;;;;;5066597;28;19920;-61
2022/07/12 06:51:48;;;;;;;;;;;24.40;51.10;;;;;;5063004;28;19959;-63
2022/07/12 06:54:13;;;;;;;;;;;24.40;51.30;;;;;;5067336;28;20005;-62
2022/07/12 06:56:39;;;;;;;;;;;24.40;51.30;;;;;;5066169;28;19968;-62
2022/07/12 06:59:04;;;;;;;;;;;24.30;51.40;;;;;;5070705;28;20110;-60
2022/07/12 07:01:30;;;;;;;;;;;24.30;51.50;;;;;;5075287;28;19923;-60
2022/07/12 07:03:55;;;;;;;;;;;24.20;52.00;;;;;;5069358;28;19912;-61
2022/07/12 07:06:20;;;;;;;;;;;24.00;52.30;;;;;;5078607;28;19917;-62
2022/07/12 07:08:46;;;;;;;;;;;23.90;52.60;;;;;;5074043;28;20011;-62
2022/07/12 07:11:11;;;;;;;;;;;23.90;52.90;;;;;;5085045;28;19920;-63
2022/07/12 07:13:37;;;;;;;;;;;23.80;52.90;;;;;;5082622;28;19961;-62
2022/07/12 07:16:02;;;;;;;;;;;23.80;53.00;;;;;;5073328;28;19935;-63
2022/07/12 07:18:28;;;;;;;;;;;23.70;53.10;;;;;;5071366;28;19913;-63
2022/07/12 07:20:53;;;;;;;;;;;23.70;53.20;;;;;;5073044;28;19916;-63
2022/07/12 07:23:19;;;;;;;;;;;23.70;53.30;;;;;;5087921;28;20057;-63
2022/07/12 07:25:45;;;;;;;;;;;23.70;53.30;;;;;;5069063;28;19920;-60
2022/07/12 07:28:10;;;;;;;;;;;23.70;53.30;;;;;;5075202;28;19912;-62
2022/07/12 07:30:54;;;;;;;;;;;23.70;53.40;;;;;;5079598;28;20451;-63
2022/07/12 07:33:23;;;;;;;;;;;23.70;53.30;;;;;;5069674;28;20478;-62
2022/07/12 07:35:48;;;;;;;;;;;23.70;53.40;;;;;;5070408;28;19917;-62
2022/07/12 07:38:14;;;;;;;;;;;23.70;53.40;;;;;;5067484;28;19923;-63
2022/07/12 07:40:40;;;;;;;;;;;23.70;53.20;;;;;;5072822;28;19912;-62
2022/07/12 07:43:05;;;;;;;;;;;23.80;53.40;;;;;;5081429;28;20905;-61
2022/07/12 07:45:30;;;;;;;;;;;23.70;53.30;;;;;;5071578;28;20075;-63
2022/07/12 07:47:56;;;;;;;;;;;23.70;53.90;;;;;;5071746;28;19917;-63
2022/07/12 07:50:21;;;;;;;;;;;23.70;53.40;;;;;;5066057;28;20060;-63
2022/07/12 07:52:49;;;;;;;;;;;23.70;53.50;;;;;;5074091;28;19920;-63
2022/07/12 07:55:15;;;;;;;;;;;23.70;53.50;;;;;;5074042;28;20379;-62
2022/07/12 07:57:41;;;;;;;;;;;23.70;53.50;;;;;;5078498;28;20007;-61
2022/07/12 08:00:06;;;;;;;;;;;23.70;53.40;;;;;;5082211;28;19916;-62
2022/07/12 08:02:32;;;;;;;;;;;23.70;53.50;;;;;;5069317;28;19918;-61
2022/07/12 08:04:57;;;;;;;;;;;23.70;53.50;;;;;;5071964;28;19939;-63
2022/07/12 08:07:23;;;;;;;;;;;23.70;53.40;;;;;;5066134;28;19970;-62
2022/07/12 08:09:48;;;;;;;;;;;23.70;53.40;;;;;;5069635;28;19917;-63
2022/07/12 08:12:13;;;;;;;;;;;23.80;53.30;;;;;;5081849;28;19955;-62
2022/07/12 08:14:39;;;;;;;;;;;23.80;53.20;;;;;;5070041;28;19912;-62
2022/07/12 08:17:04;;;;;;;;;;;23.80;53.20;;;;;;5071342;28;19939;-61
2022/07/12 08:19:30;;;;;;;;;;;23.80;53.20;;;;;;5073628;28;20436;-62
2022/07/12 08:21:55;;;;;;;;;;;23.80;53.30;;;;;;5069486;28;20384;-62
2022/07/12 08:24:21;;;;;;;;;;;23.80;53.30;;;;;;5073467;28;19908;-62
2022/07/12 08:26:46;;;;;;;;;;;23.80;53.30;;;;;;5070326;28;19916;-62
2022/07/12 08:29:12;;;;;;;;;;;23.80;53.20;;;;;;5086940;28;19915;-62
2022/07/12 08:31:37;;;;;;;;;;;23.80;53.10;;;;;;5078345;28;19962;-63
2022/07/12 08:34:03;;;;;;;;;;;23.80;53.20;;;;;;5069889;28;20406;-63
2022/07/12 08:36:28;;;;;;;;;;;23.80;53.20;;;;;;5077906;28;20450;-62
2022/07/12 08:38:53;;;;;;;;;;;23.80;53.30;;;;;;5072046;28;19923;-62
2022/07/12 08:41:19;;;;;;;;;;;23.80;53.40;;;;;;5080137;28;19912;-63
2022/07/12 08:43:44;;;;;;;;;;;23.70;53.50;;;;;;5078022;28;19917;-62
2022/07/12 08:46:10;;;;;;;;;;;23.70;53.40;;;;;;5079125;28;20007;-62
2022/07/12 08:48:36;;;;;;;;;;;23.80;53.20;;;;;;5081154;28;19909;-62
2022/07/12 08:51:02;;;;;;;;;;;23.90;53.00;;;;;;5085717;28;19970;-62
2022/07/12 08:53:28;;;;;;;;;;;23.90;53.00;;;;;;5070673;28;20299;-63
2022/07/12 08:55:53;;;;;;;;;;;23.90;53.00;;;;;;5077191;28;19917;-63
2022/07/12 08:58:19;;;;;;;;;;;24.00;53.20;;;;;;5079371;28;19942;-62
2022/07/12 09:00:44;;;;;;;;;;;23.90;53.10;;;;;;5080577;28;19912;-62
2022/07/12 09:03:12;;;;;;;;;;;23.90;53.30;;;;;;5082043;28;19912;-61
2022/07/12 09:05:37;;;;;;;;;;;23.90;53.50;;;;;;5071345;28;19919;-62
2022/07/12 09:08:03;;;;;;;;;;;23.90;53.30;;;;;;5080836;28;19912;-62
2022/07/12 09:10:28;;;;;;;;;;;23.90;53.30;;;;;;5091558;28;20272;-62
2022/07/12 09:12:54;;;;;;;;;;;23.90;53.40;;;;;;5074974;28;19932;-63
2022/07/12 09:15:20;;;;;;;;;;;23.90;53.40;;;;;;5073252;28;20368;-63
2022/07/12 09:17:46;;;;;;;;;;;23.90;53.30;;;;;;5083741;28;19918;-62
2022/07/12 09:20:13;;;;;;;;;;;23.90;53.40;;;;;;5087749;28;19913;-62
2022/07/12 09:22:51;;;;;;;;;;;23.90;53.50;;;;;;5074117;28;19941;-63
2022/07/12 09:25:17;;;;;;;;;;;23.90;53.50;;;;;;5077111;28;19926;-62
2022/07/12 09:27:46;;;;;;;;;;;23.90;53.50;;;;;;5083613;28;20325;-63
2022/07/12 09:30:12;;;;;;;;;;;23.90;53.40;;;;;;5072316;28;19920;-62
2022/07/12 09:38:16;;;;;;;;;;;24.10;53.40;;;;;;5069226;28;20402;-62
2022/07/12 09:40:42;;;;;;;;;;;24.10;53.50;;;;;;5079043;28;19912;-62
2022/07/12 09:43:07;;;;;;;;;;;24.20;53.70;;;;;;5081504;28;19984;-63
2022/07/12 09:45:32;;;;;;;;;;;24.30;53.90;;;;;;5074927;28;19908;-63
2022/07/12 09:47:58;;;;;;;;;;;24.30;53.60;;;;;;5069527;28;19960;-63
2022/07/12 09:50:23;;;;;;;;;;;24.30;53.60;;;;;;5070730;28;19920;-64
2022/07/12 09:52:49;;;;;;;;;;;24.40;53.60;;;;;;5077250;28;19920;-63
2022/07/12 09:55:14;;;;;;;;;;;24.40;53.20;;;;;;5071452;28;20368;-62
2022/07/12 09:57:40;;;;;;;;;;;24.50;53.50;;;;;;5076913;28;20391;-62
2022/07/12 10:00:08;;;;;;;;;;;24.50;53.50;;;;;;5076083;28;20349;-62
2022/07/12 10:02:34;;;;;;;;;;;24.50;53.50;;;;;;5052922;28;20408;-62
2022/07/12 10:04:59;;;;;;;;;;;24.60;53.40;;;;;;5063724;28;19920;-62
2022/07/12 10:07:25;;;;;;;;;;;24.60;53.40;;;;;;5065849;28;19967;-62
2022/07/12 10:09:51;;;;;;;;;;;24.60;53.20;;;;;;5083460;28;19993;-63
2022/07/12 10:12:17;;;;;;;;;;;24.70;53.30;;;;;;5081889;28;20031;-63
2022/07/12 10:14:43;;;;;;;;;;;24.70;53.20;;;;;;5070697;28;20347;-62
2022/07/12 10:17:12;;;;;;;;;;;24.70;53.20;;;;;;5071453;28;19920;-62
2022/07/12 10:19:38;;;;;;;;;;;24.80;53.20;;;;;;5078843;28;19916;-62
2022/07/12 10:22:04;;;;;;;;;;;24.70;53.20;;;;;;5072053;28;20385;-62
2022/07/12 10:24:32;;;;;;;;;;;24.70;53.10;;;;;;5075289;28;20056;-63
2022/07/12 10:27:13;;;;;;;;;;;24.70;53.90;;;;;;5075941;28;20347;-63
2022/07/12 10:29:39;;;;;;;;;;;24.70;53.00;;;;;;5083364;28;19927;-63
2022/07/12 10:32:19;;;;;;;;;;;24.70;53.40;;;;;;5074132;28;20265;-62
2022/07/12 10:34:45;;;;;;;;;;;24.80;53.40;;;;;;5070656;28;19916;-63
2022/07/12 10:37:11;;;;;;;;;;;24.70;53.40;;;;;;5077917;28;19921;-62
2022/07/12 10:39:37;;;;;;;;;;;24.70;53.40;;;;;;5079229;28;20284;-63
2022/07/12 10:42:05;;;;;;;;;;;24.70;53.40;;;;;;5071697;28;19912;-63
2022/07/12 10:44:33;;;;;;;;;;;24.80;53.30;;;;;;5076937;28;19958;-62
2022/07/12 10:46:59;;;;;;;;;;;24.80;53.30;;;;;;5080317;28;19916;-62
2022/07/12 10:49:26;;;;;;;;;;;24.80;53.20;;;;;;5067278;28;19955;-63
2022/07/12 10:52:10;;;;;;;;;;;24.90;53.30;;;;;;5072414;28;19916;-63
2022/07/12 10:54:54;;;;;;;;;;;24.90;53.00;;;;;;5069122;28;20265;-63
2022/07/12 10:57:38;;;;;;;;;;;24.90;53.30;;;;;;5077958;28;20325;-63
2022/07/12 11:00:03;;;;;;;;;;;24.80;53.00;;;;;;5078934;28;19916;-63
2022/07/12 11:02:29;;;;;;;;;;;24.80;53.10;;;;;;5091091;28;20492;-63
2022/07/12 11:04:54;;;;;;;;;;;24.80;53.10;;;;;;5072623;28;19971;-63
2022/07/12 11:07:20;;;;;;;;;;;24.90;53.20;;;;;;5075358;28;19916;-63
2022/07/12 11:09:45;;;;;;;;;;;24.90;53.20;;;;;;5077790;28;20351;-63
2022/07/12 11:12:11;;;;;;;;;;;24.90;53.10;;;;;;5075033;28;20314;-63
2022/07/12 11:14:36;;;;;;;;;;;24.90;53.20;;;;;;5067894;28;19913;-63
2022/07/12 11:17:02;;;;;;;;;;;24.80;53.20;;;;;;5075230;28;19988;-62
2022/07/12 11:19:28;;;;;;;;;;;24.80;53.90;;;;;;5081991;28;19920;-63
2022/07/12 11:21:57;;;;;;;;;;;24.80;53.20;;;;;;5065379;28;19954;-63
2022/07/12 11:24:23;;;;;;;;;;;24.90;53.20;;;;;;5074135;28;19988;-63
2022/07/12 11:26:48;;;;;;;;;;;24.90;53.10;;;;;;5074650;28;19956;-63
2022/07/12 11:29:14;;;;;;;;;;;24.90;53.50;;;;;;5076101;28;19982;-63
2022/07/12 11:31:39;;;;;;;;;;;24.80;53.40;;;;;;5079997;28;19970;-63
2022/07/12 11:34:05;;;;;;;;;;;24.80;53.50;;;;;;5060848;28;19912;-62
2022/07/12 11:36:30;;;;;;;;;;;24.80;53.80;;;;;;5088509;28;19959;-63
2022/07/12 11:38:56;;;;;;;;;;;24.80;53.80;;;;;;5084850;28;19982;-63
2022/07/12 11:41:22;;;;;;;;;;;24.80;53.60;;;;;;5073161;28;19985;-63
2022/07/12 11:43:48;;;;;;;;;;;24.90;53.80;;;;;;5071862;28;19913;-63
2022/07/12 11:46:13;;;;;;;;;;;24.90;53.40;;;;;;5074783;28;19912;-63
2022/07/12 11:48:39;;;;;;;;;;;24.90;53.40;;;;;;5090221;28;19932;-63
2022/07/12 11:51:05;;;;;;;;;;;25.00;53.60;;;;;;5077536;28;19918;-63
2022/07/12 11:53:31;;;;;;;;;;;25.00;53.50;;;;;;5082838;28;19935;-62
2022/07/12 11:55:57;;;;;;;;;;;25.00;53.40;;;;;;5065847;28;19909;-62
2022/07/12 11:58:22;;;;;;;;;;;25.10;53.40;;;;;;5087877;28;19909;-63
2022/07/12 12:00:48;;;;;;;;;;;25.10;53.40;;;;;;5084973;28;19920;-62
2022/07/12 12:03:16;;;;;;;;;;;25.10;53.50;;;;;;5083474;28;20010;-63
2022/07/12 12:05:41;;;;;;;;;;;25.10;53.30;;;;;;5080525;28;19938;-63
2022/07/12 12:08:07;;;;;;;;;;;25.10;53.30;;;;;;5063331;28;19916;-63
2022/07/12 12:10:33;;;;;;;;;;;25.10;53.50;;;;;;5058268;28;19974;-63
2022/07/12 12:13:00;;;;;;;;;;;25.10;53.40;;;;;;5057036;28;21317;-63
2022/07/12 12:15:32;;;;;;;;;;;25.10;53.60;;;;;;5056846;28;20390;-63
2022/07/12 12:17:58;;;;;;;;;;;25.10;53.70;;;;;;5057476;28;19917;-63
2022/07/12 12:20:42;;;;;;;;;;;25.10;53.50;;;;;;5056596;28;19920;-63
2022/07/12 12:23:14;;;;;;;;;;;25.10;53.70;;;;;;5054799;28;19919;-63
2022/07/12 12:25:40;;;;;;;;;;;25.10;53.70;;;;;;5056975;28;19916;-63
2022/07/12 12:28:05;;;;;;;;;;;25.10;53.50;;;;;;5057188;28;20896;-63
2022/07/12 12:30:35;;;;;;;;;;;25.20;53.80;;;;;;5055747;28;19913;-63
2022/07/12 12:33:01;;;;;;;;;;;25.10;53.80;;;;;;5057182;28;19923;-63
2022/07/12 12:35:36;;;;;;;;;;;25.10;53.80;;;;;;5051532;28;19912;-63
2022/07/12 12:38:11;;;;;;;;;;;25.10;54.00;;;;;;5053865;28;19920;-62
2022/07/12 12:40:37;;;;;;;;;;;25.20;53.90;;;;;;5052874;28;19913;-63
2022/07/12 12:43:10;;;;;;;;;;;25.20;53.80;;;;;;5053575;28;19961;-63
2022/07/12 12:45:36;;;;;;;;;;;25.20;53.90;;;;;;5060847;28;19912;-63
2022/07/12 12:48:01;;;;;;;;;;;25.10;54.00;;;;;;5059434;28;20400;-63
2022/07/12 12:50:37;;;;;;;;;;;25.20;53.90;;;;;;5058447;28;19920;-63
2022/07/12 12:53:09;;;;;;;;;;;25.20;54.20;;;;;;5056276;28;19916;-63
2022/07/12 12:55:34;;;;;;;;;;;25.20;54.40;;;;;;5055878;28;19925;-63
2022/07/12 12:58:01;;;;;;;;;;;25.20;54.40;;;;;;5059390;28;20395;-63
2022/07/12 13:00:26;;;;;;;;;;;25.20;54.20;;;;;;5058620;28;19951;-63
2022/07/12 13:02:52;;;;;;;;;;;25.20;54.20;;;;;;5057526;28;20035;-63
2022/07/12 13:05:17;;;;;;;;;;;25.30;54.30;;;;;;5054532;28;19920;-63
2022/07/12 13:07:43;;;;;;;;;;;25.30;54.20;;;;;;5055853;28;19925;-63
2022/07/12 13:10:08;;;;;;;;;;;25.30;54.30;;;;;;5055717;28;19921;-63
2022/07/12 13:12:34;;;;;;;;;;;25.40;54.30;;;;;;5055456;28;19925;-63
2022/07/12 13:14:59;;;;;;;;;;;25.40;54.20;;;;;;5057846;28;19916;-63
2022/07/12 13:17:25;;;;;;;;;;;25.40;54.10;;;;;;5057225;28;20318;-63
2022/07/12 13:19:50;;;;;;;;;;;25.50;54.20;;;;;;5062748;28;20294;-62
2022/07/12 13:22:16;;;;;;;;;;;25.50;54.20;;;;;;5053807;28;19968;-63
2022/07/12 13:24:41;;;;;;;;;;;25.50;54.20;;;;;;5061318;28;19912;-63
2022/07/12 13:27:07;;;;;;;;;;;25.50;54.20;;;;;;5061617;28;19920;-63
2022/07/12 13:29:33;;;;;;;;;;;25.50;54.20;;;;;;5062352;28;19916;-63
2022/07/12 13:31:58;;;;;;;;;;;25.50;54.20;;;;;;5059424;28;19950;-63
2022/07/12 13:34:24;;;;;;;;;;;25.60;54.30;;;;;;5060018;28;19921;-63
2022/07/12 13:36:49;;;;;;;;;;;25.60;54.10;;;;;;5062553;28;19917;-62
2022/07/12 13:41:59;;;;;;;;;;;25.60;54.30;;;;;;5055507;28;19928;-63
2022/07/12 13:44:24;;;;;;;;;;;25.60;54.30;;;;;;5063019;28;19917;-63
2022/07/12 13:46:49;;;;;;;;;;;25.60;54.20;;;;;;5061975;28;19919;-63
2022/07/12 13:49:15;;;;;;;;;;;25.70;54.00;;;;;;5061128;28;19927;-62
2022/07/12 13:51:40;;;;;;;;;;;25.70;54.10;;;;;;5056746;28;19921;-63
2022/07/12 13:54:07;;;;;;;;;;;25.70;53.90;;;;;;5061148;28;20273;-63
2022/07/12 13:56:33;;;;;;;;;;;25.70;54.20;;;;;;5062244;28;19913;-62
2022/07/12 13:58:58;;;;;;;;;;;25.70;54.30;;;;;;5057905;28;20389;-63
2022/07/12 14:01:24;;;;;;;;;;;25.70;54.30;;;;;;5061812;28;19916;-62
2022/07/12 14:03:49;;;;;;;;;;;25.70;54.30;;;;;;5056844;28;20003;-63
2022/07/12 14:06:15;;;;;;;;;;;25.70;54.30;;;;;;5057369;28;19920;-63
2022/07/12 14:08:40;;;;;;;;;;;25.70;54.30;;;;;;5057641;28;19920;-63
2022/07/12 14:11:05;;;;;;;;;;;25.70;54.20;;;;;;5044186;28;19925;-63
2022/07/12 14:13:31;;;;;;;;;;;25.70;54.10;;;;;;5066275;28;19953;-63
2022/07/12 14:15:56;;;;;;;;;;;25.80;54.00;;;;;;5083710;28;19912;-63
2022/07/12 14:18:22;;;;;;;;;;;25.80;54.00;;;;;;5078141;28;19932;-62
2022/07/12 14:20:47;;;;;;;;;;;25.80;54.10;;;;;;5070498;28;19912;-61